createdAt,value
2023-04-18T00:02:19.815Z,15.60
2023-04-18T00:04:46.544Z,15.20
2023-04-18T00:07:17.557Z,15.00
2023-04-18T00:09:44.093Z,15.73
2023-04-18T00:12:11.249Z,14.95
2023-04-18T00:14:38.073Z,16.70
2023-04-18T00:17:08.773Z,15.50
2023-04-18T00:19:36.890Z,14.68
2023-04-18T00:22:03.301Z,15.13
2023-04-18T00:24:29.675Z,16.25
2023-04-18T00:26:57.142Z,14.95
2023-04-18T00:29:23.548Z,13.93
2023-04-18T00:31:49.947Z,14.75
2023-04-18T00:34:16.339Z,15.38
2023-04-18T00:36:42.735Z,13.90
2023-04-18T00:39:09.119Z,15.27
2023-04-18T00:41:35.558Z,14.38
2023-04-18T00:44:01.949Z,14.65
2023-04-18T00:46:28.422Z,14.32
2023-04-18T00:48:55.033Z,14.23
2023-04-18T00:51:21.657Z,14.18
2023-04-18T00:53:48.386Z,14.90
2023-04-18T00:56:14.894Z,14.48
2023-04-18T00:58:41.586Z,14.27
2023-04-18T01:01:09.220Z,15.13
2023-04-18T01:03:37.327Z,14.27
2023-04-18T01:06:04.198Z,15.05
2023-04-18T01:08:30.818Z,13.90
2023-04-18T01:10:57.239Z,14.85
2023-04-18T01:13:23.788Z,14.40
2023-04-18T01:15:50.955Z,13.95
2023-04-18T01:18:18.104Z,14.07
2023-04-18T01:20:47.295Z,15.00
2023-04-18T01:23:14.524Z,14.32
2023-04-18T01:25:41.444Z,14.13
2023-04-18T01:28:08.359Z,13.68
2023-04-18T01:30:34.783Z,13.73
2023-04-18T01:33:02.543Z,12.02
2023-04-18T01:35:29.072Z,11.60
2023-04-18T01:37:55.662Z,11.25
2023-04-18T01:40:22.144Z,11.38
2023-04-18T01:42:48.529Z,11.00
2023-04-18T01:45:16.513Z,9.90
2023-04-18T01:47:43.706Z,10.73
2023-04-18T01:50:10.651Z,12.35
2023-04-18T01:52:37.016Z,9.93
2023-04-18T01:55:03.972Z,11.02
2023-04-18T01:57:30.916Z,9.57
2023-04-18T01:59:57.346Z,10.65
2023-04-18T02:02:23.870Z,9.30
2023-04-18T02:04:50.412Z,11.13
2023-04-18T02:07:16.830Z,10.48
2023-04-18T02:09:43.237Z,10.77
2023-04-18T02:12:10.107Z,11.30
2023-04-18T02:14:36.528Z,12.75
2023-04-18T02:17:03.110Z,9.13
2023-04-18T02:19:30.288Z,10.80
2023-04-18T02:21:56.732Z,9.40
2023-04-18T02:24:23.118Z,9.82
2023-04-18T02:26:50.302Z,11.32
2023-04-18T02:29:16.944Z,9.68
2023-04-18T02:31:43.385Z,11.25
2023-04-18T02:34:09.787Z,10.50
2023-04-18T02:36:36.429Z,10.43
2023-04-18T02:39:03.257Z,9.90
2023-04-18T02:41:29.666Z,9.20
2023-04-18T02:43:56.085Z,9.75
2023-04-18T02:46:22.537Z,9.80
2023-04-18T02:48:48.975Z,9.00
2023-04-18T02:51:15.589Z,10.48
2023-04-18T02:53:41.952Z,10.38
2023-04-18T02:56:08.399Z,8.50
2023-04-18T02:58:36.398Z,10.20
2023-04-18T03:01:03.124Z,9.05
2023-04-18T03:03:29.610Z,9.00
2023-04-18T03:05:56.209Z,9.38
2023-04-18T03:08:22.632Z,8.80
2023-04-18T03:10:49.053Z,10.95
2023-04-18T03:13:16.793Z,8.88
2023-04-18T03:15:43.222Z,10.63
2023-04-18T03:18:09.617Z,9.75
2023-04-18T03:20:36.848Z,9.23
2023-04-18T03:23:03.227Z,9.57
2023-04-18T03:25:29.654Z,10.55
2023-04-18T03:27:56.303Z,10.80
2023-04-18T03:30:22.758Z,10.18
2023-04-18T03:32:49.337Z,10.35
2023-04-18T03:35:15.914Z,10.75
2023-04-18T03:37:42.281Z,9.25
2023-04-18T03:40:09.170Z,9.70
2023-04-18T03:42:36.215Z,8.68
2023-04-18T03:45:02.784Z,8.77
2023-04-18T03:47:31.362Z,8.25
2023-04-18T03:49:57.821Z,8.75
2023-04-18T03:52:24.192Z,9.85
2023-04-18T03:54:50.639Z,10.77
2023-04-18T03:57:17.141Z,7.93
2023-04-18T03:59:43.906Z,9.45
2023-04-18T04:02:10.827Z,8.65
2023-04-18T04:04:37.425Z,8.55
2023-04-18T04:07:04.024Z,9.32
2023-04-18T04:09:30.535Z,9.52
2023-04-18T04:11:58.884Z,9.07
2023-04-18T04:14:25.235Z,11.07
2023-04-18T04:16:51.734Z,10.23
2023-04-18T04:19:18.165Z,8.70
2023-04-18T04:21:44.542Z,8.57
2023-04-18T04:24:11.075Z,9.38
2023-04-18T04:26:37.488Z,10.05
2023-04-18T04:29:03.840Z,9.57
2023-04-18T04:31:30.296Z,9.75
2023-04-18T04:33:56.654Z,9.35
2023-04-18T04:36:24.753Z,12.07
2023-04-18T04:38:52.627Z,9.82
2023-04-18T04:41:19.193Z,10.10
2023-04-18T04:43:46.609Z,10.27
2023-04-18T04:46:14.745Z,8.75
2023-04-18T04:48:41.785Z,8.13
2023-04-18T04:51:08.174Z,9.75
2023-04-18T04:53:35.289Z,9.27
2023-04-18T04:56:01.736Z,9.80
2023-04-18T04:58:28.178Z,10.18
2023-04-18T05:00:54.888Z,9.15
2023-04-18T05:03:21.405Z,13.10
2023-04-18T05:05:48.337Z,9.85
2023-04-18T05:08:14.779Z,10.32
2023-04-18T05:10:41.552Z,10.57
2023-04-18T05:13:07.947Z,10.45
2023-04-18T05:15:34.449Z,11.00
2023-04-18T05:18:00.903Z,11.98
2023-04-18T05:20:27.279Z,11.00
2023-04-18T05:22:53.807Z,11.10
2023-04-18T05:25:20.417Z,12.80
2023-04-18T05:27:47.208Z,12.18
2023-04-18T05:30:13.863Z,19.95
2023-04-18T05:32:40.378Z,16.38
2023-04-18T05:35:07.439Z,13.80
2023-04-18T05:37:34.260Z,14.82
2023-04-18T05:40:01.155Z,12.73
2023-04-18T05:42:30.454Z,15.30
2023-04-18T05:44:56.867Z,13.30
2023-04-18T05:47:29.581Z,15.75
2023-04-18T05:49:56.313Z,14.23
2023-04-18T05:52:22.918Z,12.52
2023-04-18T05:54:49.387Z,12.35
2023-04-18T05:57:16.029Z,11.63
2023-04-18T05:59:42.774Z,11.77
2023-04-18T06:02:13.400Z,14.20
2023-04-18T06:04:41.931Z,12.05
2023-04-18T06:07:09.848Z,12.25
2023-04-18T06:09:36.537Z,12.98
2023-04-18T06:12:03.374Z,12.13
2023-04-18T06:14:29.842Z,11.57
2023-04-18T06:16:56.278Z,12.93
2023-04-18T06:19:22.870Z,13.32
2023-04-18T06:21:49.712Z,11.30
2023-04-18T06:24:16.349Z,11.45
2023-04-18T06:26:43.186Z,13.05
2023-04-18T06:29:09.606Z,11.35
2023-04-18T06:31:35.977Z,11.82
2023-04-18T06:34:02.327Z,11.55
2023-04-18T06:36:28.774Z,13.40
2023-04-18T06:38:55.144Z,10.82
2023-04-18T06:41:21.586Z,13.95
2023-04-18T06:44:02.209Z,11.52
2023-04-18T06:46:34.671Z,11.50
2023-04-18T06:49:01.159Z,10.57
2023-04-18T06:51:27.994Z,10.80
2023-04-18T06:53:54.459Z,11.43
2023-04-18T06:56:21.548Z,13.23
2023-04-18T06:58:48.338Z,12.60
2023-04-18T07:01:14.836Z,11.75
2023-04-18T07:03:41.415Z,11.20
2023-04-18T07:06:10.517Z,11.80
2023-04-18T07:08:37.294Z,10.68
2023-04-18T07:11:03.731Z,11.15
2023-04-18T07:13:30.168Z,14.23
2023-04-18T07:15:56.861Z,12.20
2023-04-18T07:18:34.250Z,10.80
2023-04-18T07:21:07.207Z,11.32
2023-04-18T07:23:33.842Z,13.10
2023-04-18T07:26:02.518Z,11.98
2023-04-18T07:28:29.677Z,10.88
2023-04-18T07:30:57.245Z,10.48
2023-04-18T07:33:24.438Z,12.93
2023-04-18T07:35:52.423Z,10.77
2023-04-18T07:38:18.875Z,11.20
2023-04-18T07:40:45.585Z,13.43
2023-04-18T07:43:11.952Z,13.27
2023-04-18T07:45:38.497Z,11.93
2023-04-18T07:48:05.794Z,18.83
2023-04-18T07:50:32.227Z,14.27
2023-04-18T07:52:58.616Z,13.70
2023-04-18T07:55:24.981Z,10.80
2023-04-18T07:57:51.421Z,10.07
2023-04-18T08:00:18.698Z,12.07
2023-04-18T08:02:45.772Z,12.80
2023-04-18T08:05:12.336Z,12.32
2023-04-18T08:07:39.052Z,13.23
2023-04-18T08:10:06.168Z,15.07
2023-04-18T08:12:32.567Z,10.90
2023-04-18T08:14:59.088Z,11.25
2023-04-18T08:17:25.686Z,11.25
2023-04-18T08:19:52.098Z,12.30
2023-04-18T08:22:18.556Z,10.90
2023-04-18T08:25:01.195Z,12.30
2023-04-18T08:27:31.374Z,12.25
2023-04-18T08:29:58.100Z,12.68
2023-04-18T08:32:24.579Z,12.63
2023-04-18T08:34:52.070Z,11.05
2023-04-18T08:37:18.514Z,11.13
2023-04-18T08:39:45.099Z,13.38
2023-04-18T08:42:15.861Z,13.23
2023-04-18T08:44:42.978Z,12.10
2023-04-18T08:47:10.738Z,13.82
2023-04-18T08:49:37.213Z,11.15
2023-04-18T08:52:11.058Z,11.85
2023-04-18T08:54:38.582Z,10.80
2023-04-18T08:57:09.777Z,12.38
2023-04-18T08:59:36.807Z,12.05
2023-04-18T09:02:05.411Z,11.05
2023-04-18T09:04:34.691Z,11.90
2023-04-18T09:07:02.100Z,11.63
2023-04-18T09:09:39.280Z,11.60
2023-04-18T09:12:09.579Z,13.50
2023-04-18T09:14:43.056Z,13.68
2023-04-18T09:17:13.131Z,12.25
2023-04-18T09:19:50.102Z,13.32
2023-04-18T09:22:17.966Z,12.00
2023-04-18T09:24:53.686Z,12.77
2023-04-18T09:27:23.093Z,12.30
2023-04-18T09:29:56.550Z,14.20
2023-04-18T09:32:29.477Z,16.63
2023-04-18T09:35:04.940Z,11.18
2023-04-18T09:37:31.582Z,10.68
2023-04-18T09:39:58.054Z,11.20
2023-04-18T09:42:26.738Z,10.95
2023-04-18T09:45:08.332Z,13.48
2023-04-18T09:47:36.548Z,14.25
2023-04-18T09:50:05.375Z,11.15
2023-04-18T09:52:39.777Z,11.00
2023-04-18T09:55:09.035Z,10.60
2023-04-18T09:57:38.834Z,11.55
2023-04-18T10:00:17.309Z,11.45
2023-04-18T10:02:49.317Z,9.85
2023-04-18T10:05:19.571Z,10.93
2023-04-18T10:07:49.169Z,10.63
2023-04-18T10:10:15.872Z,13.63
2023-04-18T10:12:42.759Z,10.63
2023-04-18T10:15:11.148Z,11.13
2023-04-18T10:18:04.580Z,10.40
2023-04-18T10:20:34.869Z,10.77
2023-04-18T10:23:32.208Z,9.30
2023-04-18T10:25:59.332Z,11.10
2023-04-18T10:28:27.565Z,9.85
2023-04-18T10:31:02.878Z,8.60
2023-04-18T10:33:42.532Z,9.23
2023-04-18T10:36:09.412Z,9.35
2023-04-18T10:38:38.860Z,8.38
2023-04-18T10:41:16.848Z,7.70
2023-04-18T10:44:16.137Z,10.48
2023-04-18T10:46:51.967Z,8.60
2023-04-18T10:49:32.181Z,15.43
2023-04-18T10:52:01.424Z,23.92
2023-04-18T10:54:38.898Z,37.38
2023-04-18T10:57:07.557Z,23.52
2023-04-18T10:59:37.680Z,19.77
2023-04-18T11:02:13.228Z,20.92
2023-04-18T11:04:41.253Z,53.30
2023-04-18T11:07:07.746Z,12.77
2023-04-18T11:09:35.347Z,10.80
2023-04-18T11:12:07.381Z,11.07
2023-04-18T11:14:47.561Z,11.32
2023-04-18T11:17:35.682Z,9.38
2023-04-18T11:20:13.774Z,8.45
2023-04-18T11:22:48.571Z,10.13
2023-04-18T11:25:16.410Z,8.52
2023-04-18T11:27:48.194Z,10.30
2023-04-18T11:30:15.354Z,9.10
2023-04-18T11:32:42.073Z,8.60
2023-04-18T11:35:10.579Z,8.38
2023-04-18T11:37:38.748Z,9.77
2023-04-18T11:40:09.624Z,11.73
2023-04-18T11:42:38.925Z,11.52
2023-04-18T11:45:15.878Z,8.70
2023-04-18T11:47:43.437Z,9.93
2023-04-18T11:50:12.690Z,9.13
2023-04-18T11:52:41.206Z,8.68
2023-04-18T11:55:19.603Z,8.25
2023-04-18T11:57:53.362Z,8.30
2023-04-18T12:00:30.815Z,9.95
2023-04-18T12:02:58.591Z,11.00
2023-04-18T12:05:36.336Z,8.00
2023-04-18T12:08:11.876Z,11.63
2023-04-18T12:10:46.387Z,11.15
2023-04-18T12:13:12.933Z,7.53
2023-04-18T12:15:43.482Z,8.65
2023-04-18T12:18:12.706Z,7.90
2023-04-18T12:20:52.225Z,7.50
2023-04-18T12:23:48.545Z,8.27
2023-04-18T12:26:20.293Z,8.43
2023-04-18T12:28:50.171Z,7.60
2023-04-18T12:31:16.948Z,13.98
2023-04-18T12:33:43.344Z,7.40
2023-04-18T12:36:10.442Z,9.52
2023-04-18T12:38:36.823Z,25.10
2023-04-18T12:41:03.597Z,14.80
2023-04-18T12:43:30.071Z,9.38
2023-04-18T12:45:56.565Z,9.48
2023-04-18T12:48:22.987Z,15.32
2023-04-18T12:50:49.357Z,7.50
2023-04-18T12:53:15.879Z,9.65
2023-04-18T12:55:42.302Z,8.82
2023-04-18T12:58:08.753Z,12.35
2023-04-18T13:00:35.651Z,7.97
2023-04-18T13:03:02.619Z,7.40
2023-04-18T13:05:33.161Z,7.53
2023-04-18T13:10:30.292Z,7.97
2023-04-18T13:12:56.882Z,8.32
2023-04-18T13:15:23.911Z,10.18
2023-04-18T13:17:53.439Z,7.82
2023-04-18T13:20:19.861Z,8.07
2023-04-18T13:22:46.280Z,6.93
2023-04-18T13:25:12.764Z,7.05
2023-04-18T13:27:41.919Z,7.95
2023-04-18T13:30:11.031Z,9.75
2023-04-18T13:32:39.327Z,9.90
2023-04-18T13:35:08.388Z,8.00
2023-04-18T13:37:34.878Z,7.63
2023-04-18T13:40:01.531Z,7.05
2023-04-18T13:42:28.021Z,9.18
2023-04-18T13:44:54.511Z,7.40
2023-04-18T13:47:21.121Z,8.10
2023-04-18T13:49:47.643Z,7.57
2023-04-18T13:52:14.154Z,7.63
2023-04-18T13:54:41.432Z,6.85
2023-04-18T13:57:11.668Z,7.07
2023-04-18T13:59:40.527Z,7.90
2023-04-18T14:02:10.262Z,6.82
2023-04-18T14:04:37.464Z,7.03
2023-04-18T14:07:06.191Z,7.28
2023-04-18T14:09:32.826Z,10.40
2023-04-18T14:11:59.372Z,8.95
2023-04-18T14:14:25.979Z,20.08
2023-04-18T14:16:53.732Z,21.60
2023-04-18T14:19:20.171Z,17.08
2023-04-18T14:21:47.219Z,35.60
2023-04-18T14:24:14.160Z,25.10
2023-04-18T14:26:40.834Z,13.10
2023-04-18T14:29:07.194Z,11.90
2023-04-18T14:31:33.616Z,30.92
2023-04-18T14:34:00.139Z,19.90
2023-04-18T14:36:27.246Z,13.93
2023-04-18T14:38:54.685Z,23.77
2023-04-18T14:41:21.259Z,12.10
2023-04-18T14:43:47.633Z,11.40
2023-04-18T14:46:18.005Z,9.93
2023-04-18T14:51:12.309Z,10.40
2023-04-18T14:53:39.051Z,13.75
2023-04-18T14:56:05.841Z,13.00
2023-04-18T14:58:32.305Z,9.00
2023-04-18T15:00:58.943Z,7.15
2023-04-18T15:03:25.557Z,15.68
2023-04-18T15:05:53.253Z,8.48
2023-04-18T15:08:19.696Z,7.22
2023-04-18T15:10:47.549Z,6.25
2023-04-18T15:13:13.984Z,6.38
2023-04-18T15:15:40.524Z,8.18
2023-04-18T15:18:08.430Z,6.35
2023-04-18T15:20:37.152Z,6.60
2023-04-18T15:23:03.828Z,9.77
2023-04-18T15:25:31.013Z,6.43
2023-04-18T15:27:58.421Z,5.93
2023-04-18T15:30:25.614Z,6.40
2023-04-18T15:32:52.358Z,6.35
2023-04-18T15:35:18.872Z,7.95
2023-04-18T15:37:45.335Z,8.68
2023-04-18T15:40:16.194Z,13.57
2023-04-18T15:42:43.759Z,15.32
2023-04-18T15:45:11.672Z,15.73
2023-04-18T15:47:38.817Z,14.20
2023-04-18T15:50:05.989Z,20.98
2023-04-18T15:52:32.410Z,7.32
2023-04-18T15:54:58.880Z,10.10
2023-04-18T15:57:25.316Z,12.38
2023-04-18T15:59:51.696Z,10.40
2023-04-18T16:02:18.215Z,8.50
2023-04-18T16:04:44.705Z,6.32
2023-04-18T16:07:11.694Z,7.53
2023-04-18T16:09:38.177Z,14.15
2023-04-18T16:12:05.099Z,9.95
2023-04-18T16:14:31.650Z,10.05
2023-04-18T16:16:59.064Z,10.70
2023-04-18T16:19:25.665Z,7.90
2023-04-18T16:21:52.192Z,7.95
2023-04-18T16:24:18.863Z,10.30
2023-04-18T16:26:45.525Z,16.65
2023-04-18T16:29:11.922Z,24.63
2023-04-18T16:31:38.407Z,36.90
2023-04-18T16:34:04.827Z,20.25
2023-04-18T16:36:34.347Z,12.75
2023-04-18T16:39:00.853Z,8.93
2023-04-18T16:41:27.306Z,8.68
2023-04-18T16:43:53.958Z,8.30
2023-04-18T16:46:20.395Z,6.88
2023-04-18T16:48:46.897Z,7.53
2023-04-18T16:51:13.363Z,8.25
2023-04-18T16:53:39.794Z,8.35
2023-04-18T16:56:07.925Z,8.25
2023-04-18T16:58:34.403Z,9.10
2023-04-18T17:01:03.925Z,11.98
2023-04-18T17:03:30.573Z,9.33
2023-04-18T17:05:57.237Z,8.57
2023-04-18T17:08:25.799Z,9.13
2023-04-18T17:10:52.935Z,12.90
2023-04-18T17:13:19.382Z,10.75
2023-04-18T17:15:46.111Z,9.40
2023-04-18T17:18:12.595Z,7.68
2023-04-18T17:20:39.162Z,8.07
2023-04-18T17:23:05.528Z,7.20
2023-04-18T17:25:31.914Z,8.55
2023-04-18T17:27:58.661Z,8.82
2023-04-18T17:30:25.085Z,8.85
2023-04-18T17:32:51.631Z,8.73
2023-04-18T17:35:18.160Z,9.20
2023-04-18T17:37:44.613Z,8.40
2023-04-18T17:40:11.932Z,8.70
2023-04-18T17:42:38.611Z,8.90
2023-04-18T17:45:07.576Z,7.18
2023-04-18T17:47:34.616Z,8.60
2023-04-18T17:50:01.168Z,16.98
2023-04-18T17:52:31.273Z,17.73
2023-04-18T17:54:58.919Z,19.40
2023-04-18T17:57:26.612Z,13.35
2023-04-18T17:59:53.552Z,11.20
2023-04-18T18:02:20.271Z,7.93
2023-04-18T18:04:47.103Z,9.05
2023-04-18T18:07:13.491Z,7.90
2023-04-18T18:09:41.613Z,7.90
2023-04-18T18:12:09.860Z,7.65
2023-04-18T18:14:36.459Z,8.63
2023-04-18T18:17:03.000Z,8.75
2023-04-18T18:19:29.525Z,8.88
2023-04-18T18:21:55.950Z,8.40
2023-04-18T18:24:22.402Z,8.00
2023-04-18T18:26:50.888Z,8.00
2023-04-18T18:29:19.268Z,7.57
2023-04-18T18:31:45.905Z,7.53
2023-04-18T18:34:12.470Z,7.22
2023-04-18T18:36:39.065Z,7.43
2023-04-18T18:39:05.466Z,9.95
2023-04-18T18:41:31.857Z,7.13
2023-04-18T18:43:58.260Z,7.95
2023-04-18T18:46:24.796Z,6.78
2023-04-18T18:48:51.905Z,13.63
2023-04-18T18:51:19.072Z,8.52
2023-04-18T18:53:46.614Z,8.38
2023-04-18T18:56:13.160Z,8.13
2023-04-18T18:58:40.413Z,9.57
2023-04-18T19:01:06.870Z,8.95
2023-04-18T19:03:34.760Z,9.18
2023-04-18T19:06:03.921Z,8.68
2023-04-18T19:08:31.069Z,7.72
2023-04-18T19:10:57.501Z,10.25
2023-04-18T19:13:24.237Z,9.30
2023-04-18T19:15:51.133Z,11.32
2023-04-18T19:18:19.923Z,9.60
2023-04-18T19:20:47.042Z,7.50
2023-04-18T19:23:13.497Z,11.07
2023-04-18T19:25:39.882Z,6.55
2023-04-18T19:28:06.567Z,7.10
2023-04-18T19:30:33.045Z,9.70
2023-04-18T19:32:59.616Z,6.55
2023-04-18T19:35:26.002Z,7.00
2023-04-18T19:37:52.440Z,8.75
2023-04-18T19:40:18.924Z,6.97
2023-04-18T19:42:46.099Z,7.75
2023-04-18T19:45:13.652Z,9.60
2023-04-18T19:47:40.146Z,7.25
2023-04-18T19:50:07.491Z,7.13
2023-04-18T19:52:33.938Z,8.40
2023-04-18T19:55:00.379Z,10.82
2023-04-18T19:57:28.849Z,7.35
2023-04-18T19:59:55.710Z,14.57
2023-04-18T20:02:22.271Z,8.63
2023-04-18T20:04:48.888Z,7.80
2023-04-18T20:07:15.420Z,7.15
2023-04-18T20:09:41.827Z,7.22
2023-04-18T20:12:08.289Z,6.25
2023-04-18T20:14:34.754Z,6.10
2023-04-18T20:17:01.150Z,7.68
2023-04-18T20:19:29.774Z,6.38
2023-04-18T20:21:56.445Z,7.53
2023-04-18T20:24:23.847Z,7.95
2023-04-18T20:26:51.370Z,6.78
2023-04-18T20:29:17.801Z,8.55
2023-04-18T20:31:44.276Z,6.70
2023-04-18T20:34:11.027Z,7.15
2023-04-18T20:36:41.471Z,6.50
2023-04-18T20:39:08.895Z,7.20
2023-04-18T20:41:36.817Z,7.53
2023-04-18T20:44:06.683Z,8.40
2023-04-18T20:46:33.280Z,7.20
2023-04-18T20:48:59.800Z,6.97
2023-04-18T20:51:26.935Z,5.93
2023-04-18T20:53:53.314Z,6.45
2023-04-18T20:56:20.127Z,6.22
2023-04-18T20:58:46.551Z,6.50
2023-04-18T21:01:13.030Z,7.88
2023-04-18T21:03:39.589Z,8.45
2023-04-18T21:06:06.127Z,6.32
2023-04-18T21:08:35.067Z,6.15
2023-04-18T21:11:01.470Z,6.53
2023-04-18T21:13:27.857Z,7.03
2023-04-18T21:15:56.979Z,7.05
2023-04-18T21:18:24.006Z,7.38
2023-04-18T21:20:50.620Z,7.95
2023-04-18T21:23:17.026Z,6.90
2023-04-18T21:25:43.393Z,6.88
2023-04-18T21:28:09.809Z,6.43
2023-04-18T21:30:36.555Z,5.60
2023-04-18T21:33:03.286Z,9.52
2023-04-18T21:35:30.044Z,6.47
2023-04-18T21:37:56.782Z,6.68
2023-04-18T21:40:24.234Z,7.88
2023-04-18T21:42:53.488Z,7.15
2023-04-18T21:45:19.853Z,6.47
2023-04-18T21:47:46.781Z,5.78
2023-04-18T21:50:13.305Z,6.35
2023-04-18T21:52:39.702Z,6.22
2023-04-18T21:55:06.271Z,8.02
2023-04-18T21:57:32.689Z,6.28
2023-04-18T21:59:59.087Z,6.07
2023-04-18T22:02:26.837Z,8.90
2023-04-18T22:04:53.341Z,8.30
2023-04-18T22:07:20.008Z,7.43
2023-04-18T22:09:46.635Z,5.82
2023-04-18T22:12:15.931Z,7.05
2023-04-18T22:14:47.676Z,6.80
2023-04-18T22:17:14.104Z,6.78
2023-04-18T22:19:41.556Z,6.45
2023-04-18T22:22:07.961Z,8.40
2023-04-18T22:24:34.311Z,7.70
2023-04-18T22:27:01.213Z,6.78
2023-04-18T22:29:27.649Z,9.38
2023-04-18T22:31:54.040Z,8.48
2023-04-18T22:34:20.496Z,6.85
2023-04-18T22:36:46.913Z,8.73
2023-04-18T22:39:13.305Z,8.25
2023-04-18T22:41:39.692Z,7.18
2023-04-18T22:44:06.115Z,7.07
2023-04-18T22:46:32.994Z,7.40
2023-04-18T22:48:59.693Z,6.18
2023-04-18T22:51:28.504Z,6.57
2023-04-18T22:53:56.130Z,7.60
2023-04-18T22:56:22.497Z,6.30
2023-04-18T22:58:48.871Z,6.88
2023-04-18T23:01:15.304Z,7.65
2023-04-18T23:03:41.829Z,6.43
2023-04-18T23:06:08.317Z,6.57
2023-04-18T23:08:34.768Z,6.95
2023-04-18T23:11:01.157Z,5.22
2023-04-18T23:13:27.567Z,7.63
2023-04-18T23:15:53.986Z,6.68
2023-04-18T23:18:20.534Z,7.88
2023-04-18T23:20:47.007Z,5.60
2023-04-18T23:23:13.395Z,5.25
2023-04-18T23:25:39.813Z,8.32
2023-04-18T23:28:07.631Z,4.95
2023-04-18T23:30:36.794Z,6.88
2023-04-18T23:33:03.327Z,6.13
2023-04-18T23:35:29.788Z,6.40
2023-04-18T23:37:57.158Z,5.75
2023-04-18T23:40:23.615Z,5.47
2023-04-18T23:42:50.002Z,6.43
2023-04-18T23:45:16.521Z,6.53
2023-04-18T23:47:43.043Z,6.43
2023-04-18T23:50:09.979Z,5.70
2023-04-18T23:52:38.121Z,6.43
2023-04-18T23:55:04.845Z,5.90
2023-04-18T23:57:31.298Z,5.07
2023-04-18T23:59:57.750Z,5.90
